sensor_id;sensor_type;location;lat;lon;timestamp;temperature;humidity
21246;DHT22;10781;50.928;4.440;2022-12-18T00:00:41;-2.60;99.90
21246;DHT22;10781;50.928;4.440;2022-12-18T00:03:08;-2.50;99.90
21246;DHT22;10781;50.928;4.440;2022-12-18T00:05:33;-2.20;99.90
21246;DHT22;10781;50.928;4.440;2022-12-18T00:07:59;-2.00;99.90
21246;DHT22;10781;50.928;4.440;2022-12-18T00:10:24;-2.20;99.90
21246;DHT22;10781;50.928;4.440;2022-12-18T00:12:50;-2.20;99.90
21246;DHT22;10781;50.928;4.440;2022-12-18T00:15:16;-2.20;99.90
21246;DHT22;10781;50.928;4.440;2022-12-18T00:17:41;-2.00;99.90
21246;DHT22;10781;50.928;4.440;2022-12-18T00:20:07;-2.00;99.90
21246;DHT22;10781;50.928;4.440;2022-12-18T00:22:33;-2.20;99.90
21246;DHT22;10781;50.928;4.440;2022-12-18T00:24:59;-2.80;99.90
21246;DHT22;10781;50.928;4.440;2022-12-18T00:27:25;-3.20;99.90
21246;DHT22;10781;50.928;4.440;2022-12-18T00:29:50;-3.30;99.90
21246;DHT22;10781;50.928;4.440;2022-12-18T00:32:16;-2.90;99.90
21246;DHT22;10781;50.928;4.440;2022-12-18T00:34:42;-2.80;99.90
21246;DHT22;10781;50.928;4.440;2022-12-18T00:37:07;-2.60;99.90
21246;DHT22;10781;50.928;4.440;2022-12-18T00:39:33;-2.90;99.90
21246;DHT22;10781;50.928;4.440;2022-12-18T00:41:59;-2.90;99.90
21246;DHT22;10781;50.928;4.440;2022-12-18T00:44:43;-2.90;99.90
21246;DHT22;10781;50.928;4.440;2022-12-18T00:47:08;-3.20;99.90
21246;DHT22;10781;50.928;4.440;2022-12-18T00:49:34;-3.10;99.90
21246;DHT22;10781;50.928;4.440;2022-12-18T00:51:59;-2.90;99.90
21246;DHT22;10781;50.928;4.440;2022-12-18T00:54:25;-2.70;99.90
21246;DHT22;10781;50.928;4.440;2022-12-18T00:56:51;-3.00;99.90
21246;DHT22;10781;50.928;4.440;2022-12-18T00:59:18;-2.90;99.90
21246;DHT22;10781;50.928;4.440;2022-12-18T01:01:43;-3.00;99.90
21246;DHT22;10781;50.928;4.440;2022-12-18T01:04:10;-3.10;99.90
21246;DHT22;10781;50.928;4.440;2022-12-18T01:06:35;-3.10;99.90
21246;DHT22;10781;50.928;4.440;2022-12-18T01:09:01;-3.20;99.90
21246;DHT22;10781;50.928;4.440;2022-12-18T01:11:27;-3.10;99.90
21246;DHT22;10781;50.928;4.440;2022-12-18T01:13:54;-3.00;99.90
21246;DHT22;10781;50.928;4.440;2022-12-18T01:16:20;-3.10;99.90
21246;DHT22;10781;50.928;4.440;2022-12-18T01:18:46;-3.00;99.90
21246;DHT22;10781;50.928;4.440;2022-12-18T01:21:14;-2.80;99.90
21246;DHT22;10781;50.928;4.440;2022-12-18T01:23:40;-2.60;99.90
21246;DHT22;10781;50.928;4.440;2022-12-18T01:26:07;-2.60;99.90
21246;DHT22;10781;50.928;4.440;2022-12-18T01:28:33;-2.80;99.90
21246;DHT22;10781;50.928;4.440;2022-12-18T01:31:12;-3.00;99.90
21246;DHT22;10781;50.928;4.440;2022-12-18T01:33:38;-3.50;99.90
21246;DHT22;10781;50.928;4.440;2022-12-18T01:36:04;-3.70;99.90
21246;DHT22;10781;50.928;4.440;2022-12-18T01:38:30;-3.70;99.90
21246;DHT22;10781;50.928;4.440;2022-12-18T01:41:00;-3.60;99.90
21246;DHT22;10781;50.928;4.440;2022-12-18T01:43:49;-3.60;99.90
21246;DHT22;10781;50.928;4.440;2022-12-18T01:46:16;-3.30;99.90
21246;DHT22;10781;50.928;4.440;2022-12-18T01:48:43;-3.00;99.90
21246;DHT22;10781;50.928;4.440;2022-12-18T01:51:11;-2.90;99.90
21246;DHT22;10781;50.928;4.440;2022-12-18T01:53:39;-3.20;99.90
21246;DHT22;10781;50.928;4.440;2022-12-18T01:56:06;-3.50;99.90
21246;DHT22;10781;50.928;4.440;2022-12-18T01:58:52;-3.70;99.90
21246;DHT22;10781;50.928;4.440;2022-12-18T02:01:24;-4.10;99.90
21246;DHT22;10781;50.928;4.440;2022-12-18T02:03:50;-4.20;99.90
21246;DHT22;10781;50.928;4.440;2022-12-18T02:06:33;-3.90;99.90
21246;DHT22;10781;50.928;4.440;2022-12-18T02:12:45;-3.60;99.90
21246;DHT22;10781;50.928;4.440;2022-12-18T02:14:52;-3.50;99.90
21246;DHT22;10781;50.928;4.440;2022-12-18T02:17:22;-3.40;99.90
21246;DHT22;10781;50.928;4.440;2022-12-18T02:28:06;-4.00;99.90
21246;DHT22;10781;50.928;4.440;2022-12-18T02:30:35;-3.70;99.90
21246;DHT22;10781;50.928;4.440;2022-12-18T02:33:04;-3.70;99.90
21246;DHT22;10781;50.928;4.440;2022-12-18T02:35:31;-3.90;99.90
21246;DHT22;10781;50.928;4.440;2022-12-18T02:37:57;-3.70;99.90
21246;DHT22;10781;50.928;4.440;2022-12-18T02:40:26;-3.60;99.90
21246;DHT22;10781;50.928;4.440;2022-12-18T02:42:52;-3.60;99.90
21246;DHT22;10781;50.928;4.440;2022-12-18T02:45:18;-3.50;99.90
21246;DHT22;10781;50.928;4.440;2022-12-18T02:47:46;-3.40;99.90
21246;DHT22;10781;50.928;4.440;2022-12-18T02:50:38;-3.20;99.90
21246;DHT22;10781;50.928;4.440;2022-12-18T02:53:17;-3.20;99.90
21246;DHT22;10781;50.928;4.440;2022-12-18T02:56:21;-3.40;99.90
21246;DHT22;10781;50.928;4.440;2022-12-18T02:59:00;-3.70;99.90
21246;DHT22;10781;50.928;4.440;2022-12-18T03:04:00;-3.70;99.90
21246;DHT22;10781;50.928;4.440;2022-12-18T03:06:37;-3.60;99.90
21246;DHT22;10781;50.928;4.440;2022-12-18T03:09:12;-3.40;99.90
21246;DHT22;10781;50.928;4.440;2022-12-18T03:11:42;-3.50;99.90
21246;DHT22;10781;50.928;4.440;2022-12-18T03:14:32;-3.80;99.90
21246;DHT22;10781;50.928;4.440;2022-12-18T03:17:02;-3.90;99.90
21246;DHT22;10781;50.928;4.440;2022-12-18T03:19:32;-3.80;99.90
21246;DHT22;10781;50.928;4.440;2022-12-18T03:22:00;-3.50;99.90
21246;DHT22;10781;50.928;4.440;2022-12-18T03:24:29;-3.30;99.90
21246;DHT22;10781;50.928;4.440;2022-12-18T03:27:00;-3.20;99.90
21246;DHT22;10781;50.928;4.440;2022-12-18T03:29:45;-3.30;99.90
21246;DHT22;10781;50.928;4.440;2022-12-18T03:32:23;-3.40;99.90
21246;DHT22;10781;50.928;4.440;2022-12-18T03:34:51;-3.30;99.90
21246;DHT22;10781;50.928;4.440;2022-12-18T03:37:17;-3.20;99.90
21246;DHT22;10781;50.928;4.440;2022-12-18T03:39:42;-3.10;99.90
21246;DHT22;10781;50.928;4.440;2022-12-18T03:44:53;-3.40;99.90
21246;DHT22;10781;50.928;4.440;2022-12-18T03:50:32;-3.50;99.90
21246;DHT22;10781;50.928;4.440;2022-12-18T03:55:44;-3.60;99.90
21246;DHT22;10781;50.928;4.440;2022-12-18T03:58:13;-3.50;99.90
21246;DHT22;10781;50.928;4.440;2022-12-18T04:00:41;-3.60;99.90
21246;DHT22;10781;50.928;4.440;2022-12-18T04:03:08;-3.50;99.90
21246;DHT22;10781;50.928;4.440;2022-12-18T04:05:35;-3.40;99.90
21246;DHT22;10781;50.928;4.440;2022-12-18T04:08:03;-3.50;99.90
21246;DHT22;10781;50.928;4.440;2022-12-18T04:10:29;-3.60;99.90
21246;DHT22;10781;50.928;4.440;2022-12-18T04:12:56;-3.60;99.90
21246;DHT22;10781;50.928;4.440;2022-12-18T04:15:22;-3.70;99.90
21246;DHT22;10781;50.928;4.440;2022-12-18T04:17:49;-3.60;99.90
21246;DHT22;10781;50.928;4.440;2022-12-18T04:20:15;-3.50;99.90
21246;DHT22;10781;50.928;4.440;2022-12-18T04:22:41;-3.60;99.90
21246;DHT22;10781;50.928;4.440;2022-12-18T04:25:07;-3.60;99.90
21246;DHT22;10781;50.928;4.440;2022-12-18T04:27:33;-3.40;99.90
21246;DHT22;10781;50.928;4.440;2022-12-18T04:29:58;-3.50;99.90
21246;DHT22;10781;50.928;4.440;2022-12-18T04:32:24;-3.40;99.90
21246;DHT22;10781;50.928;4.440;2022-12-18T04:34:50;-3.40;99.90
21246;DHT22;10781;50.928;4.440;2022-12-18T04:37:15;-3.50;99.90
21246;DHT22;10781;50.928;4.440;2022-12-18T04:39:41;-3.60;99.90
21246;DHT22;10781;50.928;4.440;2022-12-18T04:42:07;-3.60;99.90
21246;DHT22;10781;50.928;4.440;2022-12-18T04:44:32;-3.30;99.90
21246;DHT22;10781;50.928;4.440;2022-12-18T04:46:58;-3.20;99.90
21246;DHT22;10781;50.928;4.440;2022-12-18T04:49:23;-3.60;99.90
21246;DHT22;10781;50.928;4.440;2022-12-18T04:51:49;-3.60;99.90
21246;DHT22;10781;50.928;4.440;2022-12-18T04:54:15;-3.40;99.90
21246;DHT22;10781;50.928;4.440;2022-12-18T04:56:40;-3.50;99.90
21246;DHT22;10781;50.928;4.440;2022-12-18T04:59:06;-3.90;99.90
21246;DHT22;10781;50.928;4.440;2022-12-18T05:01:32;-4.10;99.90
21246;DHT22;10781;50.928;4.440;2022-12-18T05:03:57;-4.30;99.90
21246;DHT22;10781;50.928;4.440;2022-12-18T05:06:23;-4.00;99.90
21246;DHT22;10781;50.928;4.440;2022-12-18T05:08:48;-3.70;99.90
21246;DHT22;10781;50.928;4.440;2022-12-18T05:11:15;-3.70;99.90
21246;DHT22;10781;50.928;4.440;2022-12-18T05:13:41;-3.70;99.90
21246;DHT22;10781;50.928;4.440;2022-12-18T05:16:08;-3.70;99.90
21246;DHT22;10781;50.928;4.440;2022-12-18T05:18:34;-4.00;99.90
21246;DHT22;10781;50.928;4.440;2022-12-18T05:21:00;-4.30;99.90
21246;DHT22;10781;50.928;4.440;2022-12-18T05:23:26;-4.40;99.90
21246;DHT22;10781;50.928;4.440;2022-12-18T05:25:54;-4.30;99.90
21246;DHT22;10781;50.928;4.440;2022-12-18T05:28:21;-4.40;99.90
21246;DHT22;10781;50.928;4.440;2022-12-18T05:30:51;-4.20;99.90
21246;DHT22;10781;50.928;4.440;2022-12-18T05:33:18;-4.20;99.90
21246;DHT22;10781;50.928;4.440;2022-12-18T05:35:44;-4.20;99.90
21246;DHT22;10781;50.928;4.440;2022-12-18T05:38:10;-4.00;99.90
21246;DHT22;10781;50.928;4.440;2022-12-18T05:40:35;-4.10;99.90
21246;DHT22;10781;50.928;4.440;2022-12-18T05:43:05;-4.10;99.90
21246;DHT22;10781;50.928;4.440;2022-12-18T05:45:30;-3.90;99.90
21246;DHT22;10781;50.928;4.440;2022-12-18T05:47:56;-3.70;99.90
21246;DHT22;10781;50.928;4.440;2022-12-18T05:50:21;-3.40;99.90
21246;DHT22;10781;50.928;4.440;2022-12-18T05:52:47;-3.60;99.90
21246;DHT22;10781;50.928;4.440;2022-12-18T05:55:13;-4.00;99.90
21246;DHT22;10781;50.928;4.440;2022-12-18T05:57:38;-4.30;99.90
21246;DHT22;10781;50.928;4.440;2022-12-18T06:00:04;-4.30;99.90
21246;DHT22;10781;50.928;4.440;2022-12-18T06:02:30;-3.90;99.90
21246;DHT22;10781;50.928;4.440;2022-12-18T06:04:55;-3.60;99.90
21246;DHT22;10781;50.928;4.440;2022-12-18T06:07:21;-3.60;99.90
21246;DHT22;10781;50.928;4.440;2022-12-18T06:09:47;-3.60;99.90
21246;DHT22;10781;50.928;4.440;2022-12-18T06:12:12;-3.50;99.90
21246;DHT22;10781;50.928;4.440;2022-12-18T06:14:38;-3.60;99.90
21246;DHT22;10781;50.928;4.440;2022-12-18T06:17:04;-3.60;99.90
21246;DHT22;10781;50.928;4.440;2022-12-18T06:19:29;-3.80;99.90
21246;DHT22;10781;50.928;4.440;2022-12-18T06:21:55;-4.00;99.90
21246;DHT22;10781;50.928;4.440;2022-12-18T06:24:23;-4.20;99.90
21246;DHT22;10781;50.928;4.440;2022-12-18T06:26:48;-4.20;99.90
21246;DHT22;10781;50.928;4.440;2022-12-18T06:29:14;-4.20;99.90
21246;DHT22;10781;50.928;4.440;2022-12-18T06:31:39;-4.10;99.90
21246;DHT22;10781;50.928;4.440;2022-12-18T06:34:05;-3.60;99.90
21246;DHT22;10781;50.928;4.440;2022-12-18T06:36:31;-3.70;99.90
21246;DHT22;10781;50.928;4.440;2022-12-18T06:38:58;-3.80;99.90
21246;DHT22;10781;50.928;4.440;2022-12-18T06:41:23;-3.80;99.90
21246;DHT22;10781;50.928;4.440;2022-12-18T06:43:49;-3.90;99.90
21246;DHT22;10781;50.928;4.440;2022-12-18T06:46:15;-4.10;99.90
21246;DHT22;10781;50.928;4.440;2022-12-18T06:48:41;-4.10;99.90
21246;DHT22;10781;50.928;4.440;2022-12-18T06:51:07;-4.10;99.90
21246;DHT22;10781;50.928;4.440;2022-12-18T06:53:33;-4.10;99.90
21246;DHT22;10781;50.928;4.440;2022-12-18T06:56:06;-3.90;99.90
21246;DHT22;10781;50.928;4.440;2022-12-18T06:58:32;-4.10;99.90
21246;DHT22;10781;50.928;4.440;2022-12-18T07:01:03;-4.20;99.90
21246;DHT22;10781;50.928;4.440;2022-12-18T07:03:30;-3.90;99.90
21246;DHT22;10781;50.928;4.440;2022-12-18T07:05:56;-3.60;99.90
21246;DHT22;10781;50.928;4.440;2022-12-18T07:08:21;-3.60;99.90
21246;DHT22;10781;50.928;4.440;2022-12-18T07:10:47;-3.70;99.90
21246;DHT22;10781;50.928;4.440;2022-12-18T07:13:15;-3.90;99.90
21246;DHT22;10781;50.928;4.440;2022-12-18T07:15:40;-4.10;99.90
21246;DHT22;10781;50.928;4.440;2022-12-18T07:18:06;-4.10;99.90
21246;DHT22;10781;50.928;4.440;2022-12-18T07:20:32;-4.10;99.90
21246;DHT22;10781;50.928;4.440;2022-12-18T07:22:57;-3.80;99.90
21246;DHT22;10781;50.928;4.440;2022-12-18T07:25:23;-3.40;99.90
21246;DHT22;10781;50.928;4.440;2022-12-18T07:27:48;-3.40;99.90
21246;DHT22;10781;50.928;4.440;2022-12-18T07:30:14;-3.20;99.90
21246;DHT22;10781;50.928;4.440;2022-12-18T07:32:40;-3.50;99.90
21246;DHT22;10781;50.928;4.440;2022-12-18T07:35:06;-3.50;99.90
21246;DHT22;10781;50.928;4.440;2022-12-18T07:37:31;-3.70;99.90
21246;DHT22;10781;50.928;4.440;2022-12-18T07:39:57;-4.00;99.90
21246;DHT22;10781;50.928;4.440;2022-12-18T07:42:22;-3.90;99.90
21246;DHT22;10781;50.928;4.440;2022-12-18T07:45:00;-3.90;99.90
21246;DHT22;10781;50.928;4.440;2022-12-18T07:47:27;-3.70;99.90
21246;DHT22;10781;50.928;4.440;2022-12-18T07:49:52;-3.50;99.90
21246;DHT22;10781;50.928;4.440;2022-12-18T07:52:18;-3.80;99.90
21246;DHT22;10781;50.928;4.440;2022-12-18T07:54:44;-3.80;99.90
21246;DHT22;10781;50.928;4.440;2022-12-18T07:57:10;-3.70;99.90
21246;DHT22;10781;50.928;4.440;2022-12-18T07:59:36;-3.60;99.90
21246;DHT22;10781;50.928;4.440;2022-12-18T08:02:02;-3.50;99.90
21246;DHT22;10781;50.928;4.440;2022-12-18T08:04:28;-3.50;99.90
21246;DHT22;10781;50.928;4.440;2022-12-18T08:06:54;-3.40;99.90
21246;DHT22;10781;50.928;4.440;2022-12-18T08:09:19;-3.50;99.90
21246;DHT22;10781;50.928;4.440;2022-12-18T08:11:45;-3.30;99.90
21246;DHT22;10781;50.928;4.440;2022-12-18T08:14:10;-3.20;99.90
21246;DHT22;10781;50.928;4.440;2022-12-18T08:16:36;-3.50;99.90
21246;DHT22;10781;50.928;4.440;2022-12-18T08:19:02;-3.70;99.90
21246;DHT22;10781;50.928;4.440;2022-12-18T08:21:30;-3.80;99.90
21246;DHT22;10781;50.928;4.440;2022-12-18T08:23:58;-3.60;99.90
21246;DHT22;10781;50.928;4.440;2022-12-18T08:26:25;-3.50;99.90
21246;DHT22;10781;50.928;4.440;2022-12-18T08:28:53;-3.40;99.90
21246;DHT22;10781;50.928;4.440;2022-12-18T08:31:19;-3.50;99.90
21246;DHT22;10781;50.928;4.440;2022-12-18T08:33:45;-3.40;99.90
21246;DHT22;10781;50.928;4.440;2022-12-18T08:36:11;-2.90;99.90
21246;DHT22;10781;50.928;4.440;2022-12-18T08:38:36;-2.50;99.90
21246;DHT22;10781;50.928;4.440;2022-12-18T08:41:07;-2.20;99.90
21246;DHT22;10781;50.928;4.440;2022-12-18T08:43:33;-2.20;99.90
21246;DHT22;10781;50.928;4.440;2022-12-18T08:46:23;-2.40;99.90
21246;DHT22;10781;50.928;4.440;2022-12-18T08:48:53;-2.20;99.90
21246;DHT22;10781;50.928;4.440;2022-12-18T08:51:20;-2.00;99.90
21246;DHT22;10781;50.928;4.440;2022-12-18T08:53:46;-1.70;99.90
21246;DHT22;10781;50.928;4.440;2022-12-18T08:56:12;-1.60;99.90
21246;DHT22;10781;50.928;4.440;2022-12-18T08:58:38;-1.50;99.90
21246;DHT22;10781;50.928;4.440;2022-12-18T09:01:06;-1.60;99.90
21246;DHT22;10781;50.928;4.440;2022-12-18T09:03:32;-1.40;99.90
21246;DHT22;10781;50.928;4.440;2022-12-18T09:05:58;-1.10;99.90
21246;DHT22;10781;50.928;4.440;2022-12-18T09:08:23;-1.00;99.90
21246;DHT22;10781;50.928;4.440;2022-12-18T09:10:50;-0.90;99.90
21246;DHT22;10781;50.928;4.440;2022-12-18T09:13:16;-0.80;99.90
21246;DHT22;10781;50.928;4.440;2022-12-18T09:15:44;-0.70;99.90
21246;DHT22;10781;50.928;4.440;2022-12-18T09:18:11;-0.60;99.90
21246;DHT22;10781;50.928;4.440;2022-12-18T09:20:38;-0.60;99.90
21246;DHT22;10781;50.928;4.440;2022-12-18T09:23:04;-0.60;99.90
21246;DHT22;10781;50.928;4.440;2022-12-18T09:25:31;-0.90;99.90
21246;DHT22;10781;50.928;4.440;2022-12-18T09:28:02;-1.10;99.90
21246;DHT22;10781;50.928;4.440;2022-12-18T09:30:28;-1.00;99.90
21246;DHT22;10781;50.928;4.440;2022-12-18T09:32:54;-1.30;99.90
21246;DHT22;10781;50.928;4.440;2022-12-18T09:35:19;-1.40;99.90
21246;DHT22;10781;50.928;4.440;2022-12-18T09:37:45;-1.40;99.90
21246;DHT22;10781;50.928;4.440;2022-12-18T09:40:16;-1.40;99.90
21246;DHT22;10781;50.928;4.440;2022-12-18T09:42:47;-1.40;99.90
21246;DHT22;10781;50.928;4.440;2022-12-18T09:45:15;-1.30;99.90
21246;DHT22;10781;50.928;4.440;2022-12-18T09:47:42;-1.10;99.90
21246;DHT22;10781;50.928;4.440;2022-12-18T09:50:32;-0.90;99.90
21246;DHT22;10781;50.928;4.440;2022-12-18T09:53:04;-0.70;99.90
21246;DHT22;10781;50.928;4.440;2022-12-18T09:55:41;-0.40;99.90
21246;DHT22;10781;50.928;4.440;2022-12-18T09:58:28;-0.40;99.90
21246;DHT22;10781;50.928;4.440;2022-12-18T10:00:55;-0.10;99.90
21246;DHT22;10781;50.928;4.440;2022-12-18T10:03:21;-0.10;99.90
21246;DHT22;10781;50.928;4.440;2022-12-18T10:14:00;-0.10;99.90
21246;DHT22;10781;50.928;4.440;2022-12-18T10:19:39;0.00;99.90
21246;DHT22;10781;50.928;4.440;2022-12-18T10:25:03;0.60;99.90
21246;DHT22;10781;50.928;4.440;2022-12-18T10:27:31;0.40;99.90
21246;DHT22;10781;50.928;4.440;2022-12-18T10:29:57;0.20;99.90
21246;DHT22;10781;50.928;4.440;2022-12-18T10:32:29;0.10;99.90
21246;DHT22;10781;50.928;4.440;2022-12-18T10:34:57;-0.10;99.90
21246;DHT22;10781;50.928;4.440;2022-12-18T10:37:25;-0.10;99.90
21246;DHT22;10781;50.928;4.440;2022-12-18T10:40:11;-0.10;99.90
21246;DHT22;10781;50.928;4.440;2022-12-18T10:42:37;0.10;99.90
21246;DHT22;10781;50.928;4.440;2022-12-18T10:45:12;0.10;99.90
21246;DHT22;10781;50.928;4.440;2022-12-18T10:47:49;-0.20;99.90
21246;DHT22;10781;50.928;4.440;2022-12-18T10:50:26;-0.20;99.90
21246;DHT22;10781;50.928;4.440;2022-12-18T10:52:59;0.00;99.90
21246;DHT22;10781;50.928;4.440;2022-12-18T10:55:37;0.10;99.90
21246;DHT22;10781;50.928;4.440;2022-12-18T11:01:15;0.00;99.90
21246;DHT22;10781;50.928;4.440;2022-12-18T11:03:46;0.00;99.90
21246;DHT22;10781;50.928;4.440;2022-12-18T11:06:18;0.00;99.90
21246;DHT22;10781;50.928;4.440;2022-12-18T11:09:01;0.10;99.90
21246;DHT22;10781;50.928;4.440;2022-12-18T11:11:27;0.30;99.90
21246;DHT22;10781;50.928;4.440;2022-12-18T11:14:13;0.50;99.90
21246;DHT22;10781;50.928;4.440;2022-12-18T11:16:45;0.80;99.90
21246;DHT22;10781;50.928;4.440;2022-12-18T11:19:19;0.80;99.90
21246;DHT22;10781;50.928;4.440;2022-12-18T11:21:48;0.80;99.90
21246;DHT22;10781;50.928;4.440;2022-12-18T11:24:31;0.90;99.90
21246;DHT22;10781;50.928;4.440;2022-12-18T11:26:59;1.00;99.90
21246;DHT22;10781;50.928;4.440;2022-12-18T11:29:37;1.00;99.90
21246;DHT22;10781;50.928;4.440;2022-12-18T11:34:50;1.50;99.90
21246;DHT22;10781;50.928;4.440;2022-12-18T11:37:17;1.50;99.90
21246;DHT22;10781;50.928;4.440;2022-12-18T11:39:51;1.40;99.90
21246;DHT22;10781;50.928;4.440;2022-12-18T11:50:17;1.60;99.90
21246;DHT22;10781;50.928;4.440;2022-12-18T11:52:44;1.50;99.90
21246;DHT22;10781;50.928;4.440;2022-12-18T11:55:15;1.40;99.90
21246;DHT22;10781;50.928;4.440;2022-12-18T11:57:54;1.30;99.90
21246;DHT22;10781;50.928;4.440;2022-12-18T12:00:22;1.30;99.90
21246;DHT22;10781;50.928;4.440;2022-12-18T12:16:25;1.90;99.90
21246;DHT22;10781;50.928;4.440;2022-12-18T12:19:12;2.10;99.90
21246;DHT22;10781;50.928;4.440;2022-12-18T12:21:43;2.20;99.90
21246;DHT22;10781;50.928;4.440;2022-12-18T12:30:19;2.40;99.90
21246;DHT22;10781;50.928;4.440;2022-12-18T12:35:52;2.00;99.90
21246;DHT22;10781;50.928;4.440;2022-12-18T12:38:31;1.70;99.90
21246;DHT22;10781;50.928;4.440;2022-12-18T12:41:05;1.60;99.90
21246;DHT22;10781;50.928;4.440;2022-12-18T12:43:35;1.60;99.90
21246;DHT22;10781;50.928;4.440;2022-12-18T12:50:57;1.80;99.90
21246;DHT22;10781;50.928;4.440;2022-12-18T12:53:31;1.80;99.90
21246;DHT22;10781;50.928;4.440;2022-12-18T12:55:59;1.80;99.90
21246;DHT22;10781;50.928;4.440;2022-12-18T12:59:10;1.80;99.90
21246;DHT22;10781;50.928;4.440;2022-12-18T13:04:50;1.60;99.90
21246;DHT22;10781;50.928;4.440;2022-12-18T13:07:55;1.70;99.90
21246;DHT22;10781;50.928;4.440;2022-12-18T13:10:37;1.70;99.90
21246;DHT22;10781;50.928;4.440;2022-12-18T13:25:58;2.30;99.90
21246;DHT22;10781;50.928;4.440;2022-12-18T13:34:21;2.30;99.90
21246;DHT22;10781;50.928;4.440;2022-12-18T13:36:47;2.00;99.90
21246;DHT22;10781;50.928;4.440;2022-12-18T13:39:30;1.90;99.90
21246;DHT22;10781;50.928;4.440;2022-12-18T13:44:39;1.80;99.90
21246;DHT22;10781;50.928;4.440;2022-12-18T13:47:30;1.90;99.90
21246;DHT22;10781;50.928;4.440;2022-12-18T13:49:57;2.00;99.90
21246;DHT22;10781;50.928;4.440;2022-12-18T13:52:26;2.20;99.90
21246;DHT22;10781;50.928;4.440;2022-12-18T13:54:56;2.60;99.90
21246;DHT22;10781;50.928;4.440;2022-12-18T13:57:34;2.80;99.90
21246;DHT22;10781;50.928;4.440;2022-12-18T14:02:49;2.90;99.90
21246;DHT22;10781;50.928;4.440;2022-12-18T14:05:27;3.10;99.90
21246;DHT22;10781;50.928;4.440;2022-12-18T14:07:54;3.00;99.90
21246;DHT22;10781;50.928;4.440;2022-12-18T14:10:20;2.90;99.90
21246;DHT22;10781;50.928;4.440;2022-12-18T14:12:50;3.00;99.90
21246;DHT22;10781;50.928;4.440;2022-12-18T14:15:42;3.20;99.90
21246;DHT22;10781;50.928;4.440;2022-12-18T14:20:43;3.20;99.90
21246;DHT22;10781;50.928;4.440;2022-12-18T14:25:53;3.30;99.90
21246;DHT22;10781;50.928;4.440;2022-12-18T14:28:20;3.20;99.90
21246;DHT22;10781;50.928;4.440;2022-12-18T14:30:47;2.90;99.90
21246;DHT22;10781;50.928;4.440;2022-12-18T14:33:19;2.80;99.90
21246;DHT22;10781;50.928;4.440;2022-12-18T14:36:02;2.80;99.90
21246;DHT22;10781;50.928;4.440;2022-12-18T14:38:37;2.60;99.90
21246;DHT22;10781;50.928;4.440;2022-12-18T14:41:10;2.60;99.90
21246;DHT22;10781;50.928;4.440;2022-12-18T14:43:38;2.70;99.90
21246;DHT22;10781;50.928;4.440;2022-12-18T14:46:06;2.50;99.90
21246;DHT22;10781;50.928;4.440;2022-12-18T14:48:50;2.50;99.90
21246;DHT22;10781;50.928;4.440;2022-12-18T14:51:21;2.30;99.90
21246;DHT22;10781;50.928;4.440;2022-12-18T14:54:02;2.30;99.90
21246;DHT22;10781;50.928;4.440;2022-12-18T14:56:34;2.10;99.90
21246;DHT22;10781;50.928;4.440;2022-12-18T14:59:23;1.90;99.90
21246;DHT22;10781;50.928;4.440;2022-12-18T15:04:35;1.60;99.90
21246;DHT22;10781;50.928;4.440;2022-12-18T15:07:22;1.70;99.90
21246;DHT22;10781;50.928;4.440;2022-12-18T15:18:04;1.90;99.90
21246;DHT22;10781;50.928;4.440;2022-12-18T15:20:50;1.80;99.90
21246;DHT22;10781;50.928;4.440;2022-12-18T15:23:52;1.80;99.90
21246;DHT22;10781;50.928;4.440;2022-12-18T15:26:18;1.80;99.90
21246;DHT22;10781;50.928;4.440;2022-12-18T15:28:49;1.60;99.90
21246;DHT22;10781;50.928;4.440;2022-12-18T15:34:00;1.50;99.90
21246;DHT22;10781;50.928;4.440;2022-12-18T15:36:29;1.50;99.90
21246;DHT22;10781;50.928;4.440;2022-12-18T15:38:55;1.60;99.90
21246;DHT22;10781;50.928;4.440;2022-12-18T15:41:22;1.70;99.90
21246;DHT22;10781;50.928;4.440;2022-12-18T15:43:50;1.90;99.90
21246;DHT22;10781;50.928;4.440;2022-12-18T15:46:22;2.00;99.90
21246;DHT22;10781;50.928;4.440;2022-12-18T15:48:50;1.70;99.90
21246;DHT22;10781;50.928;4.440;2022-12-18T15:51:32;1.60;99.90
21246;DHT22;10781;50.928;4.440;2022-12-18T15:54:01;1.60;99.90
21246;DHT22;10781;50.928;4.440;2022-12-18T15:56:32;1.60;99.90
21246;DHT22;10781;50.928;4.440;2022-12-18T15:59:18;1.70;99.90
21246;DHT22;10781;50.928;4.440;2022-12-18T16:01:47;1.60;99.90
21246;DHT22;10781;50.928;4.440;2022-12-18T16:04:15;1.60;99.90
21246;DHT22;10781;50.928;4.440;2022-12-18T16:06:41;1.60;99.90
21246;DHT22;10781;50.928;4.440;2022-12-18T16:09:08;1.70;99.90
21246;DHT22;10781;50.928;4.440;2022-12-18T16:11:35;1.60;99.90
21246;DHT22;10781;50.928;4.440;2022-12-18T16:16:47;1.60;99.90
21246;DHT22;10781;50.928;4.440;2022-12-18T16:19:14;1.60;99.90
21246;DHT22;10781;50.928;4.440;2022-12-18T16:21:39;1.50;99.90
21246;DHT22;10781;50.928;4.440;2022-12-18T16:24:13;1.50;99.90
21246;DHT22;10781;50.928;4.440;2022-12-18T16:26:40;1.60;99.90
21246;DHT22;10781;50.928;4.440;2022-12-18T16:29:07;1.70;99.90
21246;DHT22;10781;50.928;4.440;2022-12-18T16:31:33;1.60;99.90
21246;DHT22;10781;50.928;4.440;2022-12-18T16:34:18;1.70;99.90
21246;DHT22;10781;50.928;4.440;2022-12-18T16:36:46;1.70;99.90
21246;DHT22;10781;50.928;4.440;2022-12-18T16:39:12;1.70;99.90
21246;DHT22;10781;50.928;4.440;2022-12-18T16:41:38;1.70;99.90
21246;DHT22;10781;50.928;4.440;2022-12-18T16:44:04;1.70;99.90
21246;DHT22;10781;50.928;4.440;2022-12-18T16:46:30;1.80;99.90
21246;DHT22;10781;50.928;4.440;2022-12-18T16:48:57;1.80;99.90
21246;DHT22;10781;50.928;4.440;2022-12-18T16:51:24;1.90;99.90
21246;DHT22;10781;50.928;4.440;2022-12-18T16:53:50;1.90;99.90
21246;DHT22;10781;50.928;4.440;2022-12-18T16:56:15;1.80;99.90
21246;DHT22;10781;50.928;4.440;2022-12-18T16:58:41;1.90;99.90
21246;DHT22;10781;50.928;4.440;2022-12-18T17:01:09;2.10;99.90
21246;DHT22;10781;50.928;4.440;2022-12-18T17:03:36;2.30;99.90
21246;DHT22;10781;50.928;4.440;2022-12-18T17:06:05;2.30;99.90
21246;DHT22;10781;50.928;4.440;2022-12-18T17:08:31;2.30;99.90
21246;DHT22;10781;50.928;4.440;2022-12-18T17:11:04;2.40;99.90
21246;DHT22;10781;50.928;4.440;2022-12-18T17:13:31;2.30;99.90
21246;DHT22;10781;50.928;4.440;2022-12-18T17:16:02;2.10;99.90
21246;DHT22;10781;50.928;4.440;2022-12-18T17:18:28;2.20;99.90
21246;DHT22;10781;50.928;4.440;2022-12-18T17:21:01;2.30;99.90
21246;DHT22;10781;50.928;4.440;2022-12-18T17:23:27;2.40;99.90
21246;DHT22;10781;50.928;4.440;2022-12-18T17:25:55;2.40;99.90
21246;DHT22;10781;50.928;4.440;2022-12-18T17:28:22;2.30;99.90
21246;DHT22;10781;50.928;4.440;2022-12-18T17:30:47;2.30;99.90
21246;DHT22;10781;50.928;4.440;2022-12-18T17:33:13;2.40;99.90
21246;DHT22;10781;50.928;4.440;2022-12-18T17:35:39;2.40;99.90
21246;DHT22;10781;50.928;4.440;2022-12-18T17:38:05;2.30;99.90
21246;DHT22;10781;50.928;4.440;2022-12-18T17:40:34;2.30;99.90
21246;DHT22;10781;50.928;4.440;2022-12-18T17:42:59;2.30;99.90
21246;DHT22;10781;50.928;4.440;2022-12-18T17:45:25;2.40;99.90
21246;DHT22;10781;50.928;4.440;2022-12-18T17:47:51;2.30;99.90
21246;DHT22;10781;50.928;4.440;2022-12-18T17:50:16;2.20;99.90
21246;DHT22;10781;50.928;4.440;2022-12-18T17:52:42;2.10;99.90
21246;DHT22;10781;50.928;4.440;2022-12-18T17:55:08;2.00;99.90
21246;DHT22;10781;50.928;4.440;2022-12-18T17:57:34;2.00;99.90